Time;durP1;ratioP1;P1;durP2;ratioP2;P2;SDS_P1;SDS_P2;PMS_P1;PMS_P2;Temp;Humidity;BMP_temperature;BMP_pressure;BME280_temperature;BME280_humidity;BME280_pressure;Samples;Min_cycle;Max_cycle;Signal;HPM_P1;HPM_P2
2024/02/21 00:01:42;;;;;;;1.83;1.73;;;7.30;95.20;;;;;;5020963;28;20246;-73
2024/02/21 00:04:09;;;;;;;1.73;1.63;;;7.20;95.40;;;;;;5017482;28;20684;-74
2024/02/21 00:06:36;;;;;;;1.88;1.77;;;7.20;95.30;;;;;;5018009;28;20297;-73
2024/02/21 00:09:04;;;;;;;2.00;1.90;;;7.20;95.00;;;;;;5018211;28;20267;-73
2024/02/21 00:11:31;;;;;;;2.00;1.90;;;7.20;95.30;;;;;;5030096;28;20247;-73
2024/02/21 00:13:58;;;;;;;2.00;1.90;;;7.20;95.30;;;;;;5023465;28;20304;-73
2024/02/21 00:16:25;;;;;;;1.80;1.70;;;7.20;95.30;;;;;;5001846;28;20274;-73
2024/02/21 00:18:53;;;;;;;1.92;1.83;;;7.20;95.30;;;;;;5023094;28;20211;-73
2024/02/21 00:21:20;;;;;;;2.00;1.90;;;7.20;95.30;;;;;;5016822;28;20228;-73
2024/02/21 00:23:46;;;;;;;1.75;1.73;;;7.20;95.50;;;;;;5023044;28;20293;-73
2024/02/21 00:26:16;;;;;;;2.00;1.90;;;7.20;95.60;;;;;;5016854;28;20239;-72
2024/02/21 00:28:43;;;;;;;1.67;1.67;;;7.20;95.50;;;;;;5021414;28;20293;-73
2024/02/21 00:31:10;;;;;;;1.77;1.67;;;7.20;95.30;;;;;;5004028;28;20211;-73
2024/02/21 00:33:37;;;;;;;1.63;1.52;;;7.10;95.20;;;;;;5022598;28;20285;-73
2024/02/21 00:36:04;;;;;;;1.67;1.63;;;7.20;95.40;;;;;;5025983;28;20608;-73
2024/02/21 00:38:31;;;;;;;1.90;1.80;;;7.10;95.50;;;;;;5036352;28;20207;-73
2024/02/21 00:40:59;;;;;;;1.80;1.70;;;7.10;95.60;;;;;;5015085;28;20219;-73
2024/02/21 00:43:27;;;;;;;1.95;1.85;;;7.00;95.90;;;;;;5036905;28;20898;-73
2024/02/21 00:45:54;;;;;;;1.83;1.83;;;7.00;95.90;;;;;;5014931;28;20314;-73
2024/02/21 00:48:21;;;;;;;1.90;1.80;;;7.00;96.40;;;;;;5039547;28;20210;-73
2024/02/21 00:50:48;;;;;;;1.80;1.80;;;7.00;96.20;;;;;;5035136;28;20311;-73
2024/02/21 00:53:15;;;;;;;1.60;1.60;;;7.00;96.50;;;;;;5036796;28;20672;-73
2024/02/21 00:55:43;;;;;;;1.80;1.75;;;7.00;96.60;;;;;;5020159;28;20353;-73
2024/02/21 00:58:10;;;;;;;2.00;1.90;;;7.00;96.50;;;;;;5035726;28;20187;-73
2024/02/21 01:00:38;;;;;;;2.17;2.08;;;6.90;96.00;;;;;;5037439;28;20243;-72
2024/02/21 01:03:05;;;;;;;1.70;1.60;;;6.90;96.30;;;;;;5018166;28;20945;-72
2024/02/21 01:05:32;;;;;;;1.52;1.50;;;6.90;96.30;;;;;;5035186;28;20681;-72
2024/02/21 01:07:59;;;;;;;1.80;1.80;;;6.80;96.60;;;;;;5035453;28;20272;-72
2024/02/21 01:10:26;;;;;;;2.13;2.03;;;6.80;96.80;;;;;;5034872;28;20292;-72
2024/02/21 01:12:54;;;;;;;2.00;1.90;;;6.80;96.60;;;;;;5019634;28;20201;-73
2024/02/21 01:15:21;;;;;;;1.92;1.83;;;6.70;96.90;;;;;;5035527;28;20276;-71
2024/02/21 01:17:54;;;;;;;1.70;1.70;;;6.70;96.70;;;;;;5042707;28;20633;-72
2024/02/21 01:20:21;;;;;;;1.60;1.60;;;6.70;96.50;;;;;;5038082;28;20237;-72
2024/02/21 01:22:48;;;;;;;1.75;1.65;;;6.60;96.60;;;;;;5035230;28;20223;-72
2024/02/21 01:25:15;;;;;;;2.00;1.90;;;6.50;96.60;;;;;;5036300;28;20693;-72
2024/02/21 01:27:42;;;;;;;1.70;1.60;;;6.50;96.90;;;;;;5038116;28;20766;-72
2024/02/21 01:30:11;;;;;;;1.85;1.75;;;6.50;97.00;;;;;;5042161;28;20250;-71
2024/02/21 01:32:38;;;;;;;1.83;1.73;;;6.50;97.20;;;;;;5040915;28;20788;-72
2024/02/21 01:35:08;;;;;;;2.08;1.95;;;6.50;97.10;;;;;;5039432;28;20799;-71
2024/02/21 01:37:35;;;;;;;2.00;1.90;;;6.50;97.40;;;;;;5039444;28;20358;-71
2024/02/21 01:40:03;;;;;;;1.83;1.83;;;6.50;97.70;;;;;;5019278;28;20276;-72
2024/02/21 01:42:30;;;;;;;1.90;1.80;;;6.50;97.50;;;;;;5024529;28;20294;-72
2024/02/21 01:44:58;;;;;;;2.00;1.90;;;6.50;97.60;;;;;;5043654;28;20778;-72
2024/02/21 01:47:25;;;;;;;1.85;1.83;;;6.50;97.80;;;;;;5024590;28;20230;-73
2024/02/21 01:49:52;;;;;;;1.83;1.73;;;6.50;97.70;;;;;;5041021;28;20250;-73
2024/02/21 01:52:21;;;;;;;1.60;1.60;;;6.50;97.80;;;;;;5045893;28;20294;-72
2024/02/21 01:54:48;;;;;;;1.92;1.83;;;6.50;97.80;;;;;;5045879;28;20243;-73
2024/02/21 01:57:16;;;;;;;1.90;1.80;;;6.50;97.80;;;;;;5042490;28;20230;-73
2024/02/21 01:59:43;;;;;;;1.70;1.70;;;6.50;97.60;;;;;;5023070;28;20900;-73
2024/02/21 02:02:10;;;;;;;1.48;1.48;;;6.50;97.50;;;;;;5042117;28;20340;-72
2024/02/21 02:04:39;;;;;;;2.00;1.90;;;6.50;97.70;;;;;;5037818;28;20277;-72
2024/02/21 02:07:08;;;;;;;2.00;1.90;;;6.40;98.00;;;;;;5024521;28;20226;-73
2024/02/21 02:09:37;;;;;;;1.88;1.85;;;6.40;97.90;;;;;;5039890;28;20242;-72
2024/02/21 02:12:04;;;;;;;1.83;1.75;;;6.40;98.10;;;;;;5038706;28;20250;-73
2024/02/21 02:14:31;;;;;;;1.70;1.60;;;6.30;97.80;;;;;;5037583;28;20234;-72
2024/02/21 02:16:58;;;;;;;1.83;1.77;;;6.20;97.90;;;;;;5040453;28;20246;-72
2024/02/21 02:19:25;;;;;;;2.08;1.98;;;6.20;97.80;;;;;;5019632;28;20214;-72
2024/02/21 02:21:56;;;;;;;2.05;1.95;;;6.20;97.60;;;;;;5024283;28;20712;-72
2024/02/21 02:24:26;;;;;;;2.10;2.00;;;6.10;97.90;;;;;;5018231;28;20712;-72
2024/02/21 02:26:53;;;;;;;2.10;2.00;;;6.10;98.30;;;;;;5035995;28;20223;-72
2024/02/21 02:29:20;;;;;;;1.85;1.75;;;6.10;98.50;;;;;;5041883;28;20226;-73
2024/02/21 02:31:48;;;;;;;1.90;1.80;;;6.00;98.70;;;;;;5042307;28;20269;-72
2024/02/21 02:34:14;;;;;;;1.95;1.88;;;6.00;99.30;;;;;;5040255;28;20227;-72
2024/02/21 02:36:41;;;;;;;2.13;2.03;;;5.90;99.20;;;;;;5041401;28;20265;-72
2024/02/21 02:39:08;;;;;;;2.20;2.10;;;5.90;99.20;;;;;;5020130;28;20626;-73
2024/02/21 02:41:37;;;;;;;1.95;1.83;;;5.90;99.20;;;;;;5041744;28;20234;-72
2024/02/21 02:44:05;;;;;;;1.90;1.80;;;5.90;99.20;;;;;;5044081;28;20349;-73
2024/02/21 02:46:32;;;;;;;2.10;2.00;;;5.90;99.10;;;;;;5037982;28;20301;-72
2024/02/21 02:48:59;;;;;;;2.20;2.10;;;6.00;99.40;;;;;;5036424;28;20218;-72
2024/02/21 02:51:25;;;;;;;2.17;2.08;;;6.00;99.30;;;;;;5043146;28;20269;-72
2024/02/21 02:53:52;;;;;;;1.95;1.88;;;6.00;99.30;;;;;;5038561;28;20242;-73
2024/02/21 02:56:19;;;;;;;2.08;1.98;;;5.90;99.50;;;;;;5019427;28;20258;-72
2024/02/21 02:58:48;;;;;;;2.20;2.10;;;5.90;99.90;;;;;;5021638;28;20278;-72
2024/02/21 03:01:15;;;;;;;2.25;2.15;;;5.80;99.40;;;;;;5020050;28;20222;-72
2024/02/21 03:03:42;;;;;;;2.17;2.00;;;5.80;99.40;;;;;;5016908;28;20281;-72
2024/02/21 03:06:09;;;;;;;1.95;1.88;;;5.80;99.50;;;;;;5017452;28;20254;-72
2024/02/21 03:08:36;;;;;;;2.00;1.90;;;5.80;99.70;;;;;;5018958;28;20868;-72
2024/02/21 03:11:03;;;;;;;2.10;2.00;;;5.80;99.80;;;;;;5019435;28;20321;-72
2024/02/21 03:13:30;;;;;;;2.15;2.05;;;5.80;99.70;;;;;;5023706;28;20235;-72
2024/02/21 03:15:58;;;;;;;1.90;1.90;;;5.80;99.80;;;;;;5020329;28;20341;-72
2024/02/21 03:18:26;;;;;;;1.83;1.83;;;5.80;99.90;;;;;;4999350;28;20279;-72
2024/02/21 03:20:53;;;;;;;2.13;2.03;;;5.80;99.90;;;;;;5016312;28;20948;-72
2024/02/21 03:23:20;;;;;;;2.20;2.10;;;5.80;99.90;;;;;;4989821;28;20292;-72
2024/02/21 03:25:47;;;;;;;1.90;1.90;;;5.80;99.90;;;;;;5015799;28;20251;-72
2024/02/21 03:28:14;;;;;;;2.20;2.10;;;5.70;99.90;;;;;;5018436;28;20838;-74
2024/02/21 03:30:41;;;;;;;2.10;2.00;;;5.70;99.90;;;;;;5018848;28;20301;-74
2024/02/21 03:33:09;;;;;;;2.15;2.05;;;5.80;99.90;;;;;;5018366;28;20793;-73
2024/02/21 03:35:36;;;;;;;2.05;1.98;;;5.80;99.90;;;;;;5016380;28;20309;-74
2024/02/21 03:38:03;;;;;;;2.10;2.00;;;5.70;99.90;;;;;;5015189;28;20290;-74
2024/02/21 03:40:30;;;;;;;1.80;1.80;;;5.70;99.90;;;;;;5020978;28;20242;-74
2024/02/21 03:42:57;;;;;;;2.00;1.90;;;5.60;99.90;;;;;;5021054;28;20954;-74
2024/02/21 03:45:24;;;;;;;1.98;1.90;;;5.60;99.90;;;;;;5018035;28;20252;-74
2024/02/21 03:47:51;;;;;;;2.13;2.03;;;5.50;99.90;;;;;;5019086;28;20273;-74
2024/02/21 03:50:20;;;;;;;1.85;1.85;;;5.40;99.90;;;;;;5020193;28;20243;-74
2024/02/21 03:52:47;;;;;;;1.83;1.83;;;5.40;99.90;;;;;;5018707;28;20681;-74
2024/02/21 03:55:14;;;;;;;2.05;1.95;;;5.40;99.90;;;;;;5016630;28;20230;-73
2024/02/21 03:57:41;;;;;;;2.10;2.00;;;5.30;99.90;;;;;;5015965;28;20624;-73
2024/02/21 04:00:11;;;;;;;2.20;2.10;;;5.30;99.90;;;;;;5019462;28;20338;-72
2024/02/21 04:02:38;;;;;;;2.45;2.35;;;5.30;99.90;;;;;;5004141;28;20207;-73
2024/02/21 04:05:08;;;;;;;2.10;2.00;;;5.30;99.90;;;;;;5019347;28;20230;-72
2024/02/21 04:07:37;;;;;;;1.63;1.63;;;5.30;99.90;;;;;;5018213;28;20215;-72
2024/02/21 04:10:05;;;;;;;2.10;2.00;;;5.40;99.90;;;;;;5018587;28;20255;-73
2024/02/21 04:12:32;;;;;;;2.00;1.92;;;5.40;99.90;;;;;;5017181;28;20231;-73
2024/02/21 04:14:59;;;;;;;2.40;2.30;;;5.40;99.90;;;;;;4998662;28;20224;-73
2024/02/21 04:17:26;;;;;;;2.10;2.00;;;5.40;99.90;;;;;;5016480;28;20299;-73
2024/02/21 04:20:05;;;;;;;2.50;2.40;;;5.40;99.90;;;;;;5019969;28;20265;-73
2024/02/21 04:22:33;;;;;;;2.20;2.10;;;5.40;99.90;;;;;;5017912;28;20199;-73
2024/02/21 04:25:02;;;;;;;2.40;2.30;;;5.40;99.90;;;;;;5019065;28;20251;-73
2024/02/21 04:27:29;;;;;;;1.80;1.70;;;5.40;99.90;;;;;;5015136;28;20787;-73
2024/02/21 04:29:56;;;;;;;2.03;1.92;;;5.30;99.90;;;;;;4999654;28;20306;-73
2024/02/21 04:32:23;;;;;;;1.83;1.77;;;5.30;99.90;;;;;;5018483;28;20235;-73
2024/02/21 04:34:50;;;;;;;1.92;1.83;;;5.20;99.90;;;;;;5019060;28;20243;-73
2024/02/21 04:37:17;;;;;;;2.10;2.00;;;5.20;99.90;;;;;;5021596;28;20328;-73
2024/02/21 04:39:44;;;;;;;1.95;1.92;;;5.20;99.90;;;;;;5012244;28;20270;-73
2024/02/21 04:42:12;;;;;;;1.92;1.90;;;5.30;99.90;;;;;;5011629;28;20260;-72
2024/02/21 04:44:39;;;;;;;1.92;1.83;;;5.20;99.90;;;;;;5013912;28;20313;-72
2024/02/21 04:47:06;;;;;;;1.85;1.75;;;5.20;99.90;;;;;;5017331;28;20250;-73
2024/02/21 04:49:33;;;;;;;2.05;1.98;;;5.20;99.90;;;;;;5017709;28;20255;-72
2024/02/21 04:52:00;;;;;;;2.03;1.92;;;5.20;99.90;;;;;;5020625;28;20336;-72
2024/02/21 04:54:28;;;;;;;1.90;1.80;;;5.10;99.90;;;;;;4997030;28;20251;-72
2024/02/21 04:56:54;;;;;;;2.33;2.22;;;5.10;99.90;;;;;;5026513;28;20289;-72
2024/02/21 04:59:23;;;;;;;2.10;2.00;;;5.10;99.90;;;;;;5016527;28;20325;-72
2024/02/21 05:01:50;;;;;;;2.40;2.30;;;5.10;99.90;;;;;;5014736;28;20316;-72
2024/02/21 05:04:17;;;;;;;2.13;2.03;;;5.10;99.90;;;;;;5027806;28;20258;-72
2024/02/21 05:06:45;;;;;;;2.10;2.00;;;5.00;99.90;;;;;;5024657;28;20246;-72
2024/02/21 05:09:13;;;;;;;2.00;1.90;;;5.00;99.90;;;;;;5021651;28;20779;-72
2024/02/21 05:11:40;;;;;;;2.08;1.90;;;5.00;99.90;;;;;;5020606;28;20270;-72
2024/02/21 05:14:07;;;;;;;1.83;1.73;;;5.00;99.90;;;;;;5019979;28;20770;-72
2024/02/21 05:16:36;;;;;;;2.00;2.00;;;5.00;99.90;;;;;;5018439;28;20310;-72
2024/02/21 05:19:04;;;;;;;1.98;1.88;;;5.00;99.90;;;;;;5004685;28;20232;-72
2024/02/21 05:21:31;;;;;;;2.22;2.13;;;5.00;99.90;;;;;;5023710;28;20300;-73
2024/02/21 05:23:59;;;;;;;2.30;2.20;;;5.00;99.90;;;;;;5001276;28;20317;-73
2024/02/21 05:26:28;;;;;;;2.30;2.20;;;5.00;99.90;;;;;;5024117;28;20257;-73
2024/02/21 05:28:56;;;;;;;2.40;2.20;;;4.90;99.90;;;;;;5020518;28;20309;-73
2024/02/21 05:31:23;;;;;;;2.22;2.13;;;4.90;99.90;;;;;;5003098;28;20264;-73
2024/02/21 05:33:52;;;;;;;2.03;1.92;;;4.90;99.90;;;;;;5018031;28;20242;-72
2024/02/21 05:36:19;;;;;;;2.10;2.00;;;4.80;99.90;;;;;;5019898;28;20301;-73
2024/02/21 05:38:48;;;;;;;2.22;2.13;;;4.80;99.90;;;;;;5021853;28;20227;-72
2024/02/21 05:41:15;;;;;;;2.40;2.30;;;4.80;99.90;;;;;;5026583;28;20783;-72
2024/02/21 05:43:42;;;;;;;2.17;2.08;;;4.80;99.90;;;;;;5020234;28;20293;-73
2024/02/21 05:46:09;;;;;;;2.00;1.90;;;4.80;99.90;;;;;;5020236;28;20311;-73
2024/02/21 05:48:36;;;;;;;2.05;1.95;;;4.80;99.90;;;;;;5022511;28;20721;-73
2024/02/21 05:51:05;;;;;;;2.20;2.10;;;4.80;99.90;;;;;;5003772;28;20258;-72
2024/02/21 05:53:31;;;;;;;2.50;2.40;;;4.80;99.90;;;;;;5020605;28;20308;-72
2024/02/21 05:55:58;;;;;;;2.15;2.05;;;4.70;99.90;;;;;;5017649;28;20275;-72
2024/02/21 05:58:25;;;;;;;2.40;2.30;;;4.70;99.90;;;;;;5016685;28;20326;-73
2024/02/21 06:00:52;;;;;;;2.40;2.30;;;4.70;99.90;;;;;;5020020;28;20243;-73
2024/02/21 06:03:19;;;;;;;2.78;2.67;;;4.60;99.90;;;;;;5022610;28;20228;-73
2024/02/21 06:05:46;;;;;;;2.80;2.70;;;4.60;99.90;;;;;;4985113;28;20910;-73
2024/02/21 06:08:15;;;;;;;2.75;2.65;;;4.60;99.90;;;;;;5021920;28;20258;-72
2024/02/21 06:10:42;;;;;;;2.53;2.42;;;4.60;99.90;;;;;;5015912;28;20305;-73
2024/02/21 06:13:09;;;;;;;2.70;2.60;;;4.60;99.90;;;;;;5017754;28;20317;-72
2024/02/21 06:15:36;;;;;;;2.80;2.60;;;4.70;99.90;;;;;;5015193;28;20838;-73
2024/02/21 06:18:04;;;;;;;2.88;2.72;;;4.70;99.90;;;;;;5019158;28;20207;-72
2024/02/21 06:20:31;;;;;;;2.60;2.50;;;4.70;99.90;;;;;;5018869;28;20246;-72
2024/02/21 06:22:58;;;;;;;2.45;2.35;;;4.70;99.90;;;;;;5023939;28;20239;-72
2024/02/21 06:25:27;;;;;;;2.08;1.98;;;4.70;99.90;;;;;;5005133;28;20220;-72
2024/02/21 06:27:54;;;;;;;2.50;2.40;;;4.60;99.90;;;;;;5024495;28;20227;-73
2024/02/21 06:30:21;;;;;;;2.33;2.22;;;4.60;99.90;;;;;;5002511;28;20375;-72
2024/02/21 06:32:48;;;;;;;2.45;2.25;;;4.70;99.90;;;;;;5023583;28;20339;-73
2024/02/21 06:35:15;;;;;;;2.17;2.08;;;4.70;99.90;;;;;;5024712;28;20309;-72
2024/02/21 06:37:42;;;;;;;2.25;2.15;;;4.70;99.90;;;;;;5018349;28;20888;-72
2024/02/21 06:40:09;;;;;;;2.30;2.20;;;4.70;99.90;;;;;;5002361;28;20251;-72
2024/02/21 06:42:38;;;;;;;2.35;2.25;;;4.70;99.90;;;;;;5003578;28;20211;-72
2024/02/21 06:45:06;;;;;;;2.42;2.33;;;4.70;99.90;;;;;;5020065;28;20247;-72
2024/02/21 06:47:33;;;;;;;2.55;2.45;;;4.80;99.90;;;;;;5019975;28;20281;-72
2024/02/21 06:50:00;;;;;;;2.50;2.40;;;4.80;99.90;;;;;;5019241;28;20309;-72
2024/02/21 06:52:28;;;;;;;2.63;2.53;;;4.90;99.90;;;;;;5018081;28;20227;-73
2024/02/21 06:54:55;;;;;;;2.65;2.47;;;4.90;99.90;;;;;;5016868;28;20277;-73
2024/02/21 06:57:22;;;;;;;2.33;2.22;;;4.90;99.90;;;;;;5001126;28;20231;-73
2024/02/21 06:59:50;;;;;;;2.45;2.35;;;4.90;99.90;;;;;;5015090;28;20235;-73
2024/02/21 07:02:17;;;;;;;2.10;2.00;;;4.90;99.90;;;;;;5012233;28;20217;-73
2024/02/21 07:04:44;;;;;;;2.55;2.45;;;4.90;99.90;;;;;;5016041;28;20275;-73
2024/02/21 07:07:11;;;;;;;2.38;2.28;;;4.90;99.90;;;;;;5014499;28;20226;-73
2024/02/21 07:09:38;;;;;;;2.65;2.55;;;4.90;99.90;;;;;;5014715;28;20736;-73
2024/02/21 07:12:05;;;;;;;2.60;2.50;;;4.80;99.90;;;;;;5018919;28;20255;-73
2024/02/21 07:14:33;;;;;;;2.70;2.60;;;4.80;99.90;;;;;;5018477;28;20251;-73
2024/02/21 07:17:03;;;;;;;3.78;3.58;;;4.80;99.90;;;;;;5000394;28;20235;-73
2024/02/21 07:19:30;;;;;;;2.80;2.60;;;4.80;99.90;;;;;;5013464;28;20250;-73
2024/02/21 07:21:57;;;;;;;2.72;2.53;;;4.80;99.90;;;;;;5020735;28;20687;-73
2024/02/21 07:24:24;;;;;;;2.92;2.72;;;4.80;99.90;;;;;;5021195;28;20231;-73
2024/02/21 07:26:51;;;;;;;3.05;2.85;;;4.80;99.90;;;;;;5015977;28;20308;-72
2024/02/21 07:29:18;;;;;;;2.85;2.75;;;5.30;99.90;;;;;;5018273;28;20251;-72
2024/02/21 07:31:48;;;;;;;3.25;3.05;;;6.40;99.90;;;;;;5019181;28;20318;-72
2024/02/21 07:34:17;;;;;;;3.22;3.00;;;7.50;99.90;;;;;;5016100;28;20228;-72
2024/02/21 07:36:44;;;;;;;2.90;2.70;;;8.50;99.90;;;;;;5000148;28;20312;-72
2024/02/21 07:39:11;;;;;;;2.90;2.70;;;9.40;99.90;;;;;;5013810;28;20227;-72
2024/02/21 07:41:40;;;;;;;2.50;2.40;;;10.20;99.90;;;;;;5017474;28;20214;-73
2024/02/21 07:44:07;;;;;;;2.25;2.15;;;10.80;99.30;;;;;;5018040;28;20314;-73
2024/02/21 07:46:34;;;;;;;2.00;1.90;;;11.10;98.50;;;;;;5017724;28;21213;-73
2024/02/21 07:49:02;;;;;;;2.15;2.05;;;11.50;97.70;;;;;;5017959;28;20239;-72
2024/02/21 07:51:31;;;;;;;2.00;1.90;;;11.70;97.30;;;;;;5015870;28;20370;-72
2024/02/21 07:53:58;;;;;;;2.50;2.35;;;11.90;97.00;;;;;;5018247;28;20250;-73
2024/02/21 07:56:28;;;;;;;2.67;2.05;;;12.10;96.80;;;;;;5018908;28;20254;-73
2024/02/21 07:58:55;;;;;;;2.03;1.92;;;12.20;96.30;;;;;;5019841;28;20247;-73
2024/02/21 08:01:22;;;;;;;2.58;2.38;;;12.30;96.30;;;;;;4982840;28;20313;-74
2024/02/21 08:03:49;;;;;;;2.28;1.98;;;12.50;95.60;;;;;;5018819;28;20292;-73
2024/02/21 08:06:16;;;;;;;2.05;1.95;;;12.50;95.60;;;;;;5015893;28;20313;-73
2024/02/21 08:08:44;;;;;;;2.38;2.17;;;12.80;96.50;;;;;;5018052;28;20292;-73
2024/02/21 08:11:11;;;;;;;2.20;2.00;;;13.10;95.70;;;;;;5017031;28;20251;-73
2024/02/21 08:13:38;;;;;;;2.35;2.17;;;13.10;96.00;;;;;;5017961;28;20259;-74
2024/02/21 08:16:05;;;;;;;1.80;1.70;;;13.30;95.50;;;;;;5020650;28;20251;-73
2024/02/21 08:18:36;;;;;;;2.10;2.00;;;13.30;95.30;;;;;;5013742;28;20208;-74
2024/02/21 08:21:04;;;;;;;2.38;2.17;;;13.50;95.10;;;;;;5036526;28;20362;-73
2024/02/21 08:23:31;;;;;;;1.77;1.67;;;13.60;94.60;;;;;;5037584;28;20227;-73
2024/02/21 08:26:00;;;;;;;1.85;1.75;;;13.70;94.40;;;;;;5005318;28;20309;-73
2024/02/21 08:28:27;;;;;;;1.88;1.77;;;13.70;94.50;;;;;;5038330;28;20404;-75
2024/02/21 08:30:54;;;;;;;2.50;2.13;;;14.00;94.60;;;;;;5030426;28;20234;-73
2024/02/21 08:33:24;;;;;;;2.00;1.90;;;14.20;94.30;;;;;;5033524;28;20257;-73
2024/02/21 08:35:51;;;;;;;1.80;1.70;;;14.40;94.20;;;;;;5034016;28;20313;-74
2024/02/21 08:38:18;;;;;;;2.00;1.90;;;14.60;94.10;;;;;;5039008;28;20227;-74
2024/02/21 08:40:45;;;;;;;2.70;2.13;;;14.70;93.60;;;;;;5040057;28;20229;-73
2024/02/21 08:43:13;;;;;;;1.92;1.80;;;14.70;92.70;;;;;;5035264;28;20227;-74
2024/02/21 08:45:41;;;;;;;1.70;1.60;;;14.60;92.80;;;;;;5035395;28;21448;-73
2024/02/21 08:48:08;;;;;;;2.70;1.80;;;14.60;93.10;;;;;;5034043;28;20381;-74
2024/02/21 08:50:36;;;;;;;1.70;1.60;;;14.60;93.10;;;;;;5034937;28;20218;-73
2024/02/21 08:53:03;;;;;;;2.13;1.92;;;14.80;92.90;;;;;;5037636;28;20684;-74
2024/02/21 08:55:30;;;;;;;2.10;1.73;;;15.00;92.80;;;;;;5032631;28;20331;-75
2024/02/21 08:57:57;;;;;;;2.00;1.90;;;15.10;92.50;;;;;;5035891;28;20676;-72
2024/02/21 09:00:27;;;;;;;2.30;2.10;;;15.10;92.20;;;;;;5033148;28;20310;-72
2024/02/21 09:02:55;;;;;;;2.55;1.48;;;14.80;91.90;;;;;;5034325;28;20234;-73
2024/02/21 09:05:23;;;;;;;2.08;1.98;;;14.70;93.70;;;;;;5033468;28;20229;-73
2024/02/21 09:07:50;;;;;;;2.85;2.00;;;14.80;93.90;;;;;;5032257;28;20241;-73
2024/02/21 09:10:17;;;;;;;1.98;1.88;;;14.90;93.20;;;;;;5026259;28;20219;-73
2024/02/21 09:12:44;;;;;;;2.45;1.90;;;14.80;93.70;;;;;;5014905;28;20227;-73
2024/02/21 09:15:12;;;;;;;2.00;1.90;;;15.00;92.60;;;;;;5014572;28;20259;-73
2024/02/21 09:17:40;;;;;;;2.00;1.90;;;14.80;93.20;;;;;;5009698;28;20261;-74
2024/02/21 09:20:09;;;;;;;1.75;1.65;;;14.80;93.60;;;;;;5008702;28;20348;-72
2024/02/21 09:22:37;;;;;;;1.80;1.70;;;14.70;93.30;;;;;;5010773;28;20204;-73
2024/02/21 09:25:05;;;;;;;2.67;1.70;;;14.70;92.70;;;;;;5026144;28;20317;-72
2024/02/21 09:27:32;;;;;;;2.55;1.80;;;14.80;92.20;;;;;;4996718;28;20273;-72
2024/02/21 09:29:59;;;;;;;1.95;1.80;;;14.80;92.30;;;;;;5009739;28;20303;-73
2024/02/21 09:32:26;;;;;;;2.42;1.60;;;14.70;92.00;;;;;;5014029;28;20622;-72
2024/02/21 09:34:55;;;;;;;2.00;1.48;;;14.60;91.30;;;;;;4995226;28;20227;-73
2024/02/21 09:37:22;;;;;;;3.90;1.50;;;14.70;91.90;;;;;;5010568;28;20797;-72
2024/02/21 09:39:51;;;;;;;1.50;1.40;;;15.10;90.70;;;;;;5006467;28;20293;-74
2024/02/21 09:42:21;;;;;;;2.33;1.40;;;15.10;91.10;;;;;;4992533;28;20608;-72
2024/02/21 09:44:48;;;;;;;2.70;1.73;;;15.40;91.70;;;;;;4996809;28;20289;-75
2024/02/21 09:47:23;;;;;;;1.92;1.42;;;15.40;91.00;;;;;;5012310;28;20200;-74
2024/02/21 09:49:50;;;;;;;1.70;1.60;;;15.60;89.90;;;;;;5014086;28;20791;-74
2024/02/21 09:52:21;;;;;;;1.30;1.20;;;15.60;90.30;;;;;;5012583;28;20593;-74
2024/02/21 09:54:48;;;;;;;1.48;1.38;;;15.60;90.20;;;;;;5012598;28;20227;-74
2024/02/21 09:57:17;;;;;;;1.60;1.50;;;15.70;90.10;;;;;;5015701;28;20203;-74
2024/02/21 09:59:46;;;;;;;4.20;1.58;;;15.60;90.00;;;;;;5014557;28;20320;-74
2024/02/21 10:02:13;;;;;;;1.67;1.58;;;15.50;89.70;;;;;;5019710;28;20597;-74
2024/02/21 10:04:41;;;;;;;1.65;1.55;;;15.50;89.50;;;;;;5014699;28;20858;-73
2024/02/21 10:07:08;;;;;;;2.15;1.60;;;15.60;89.60;;;;;;5016183;28;20318;-73
2024/02/21 10:09:37;;;;;;;1.30;1.30;;;15.50;88.60;;;;;;5017603;28;20219;-73
2024/02/21 10:12:11;;;;;;;1.60;1.50;;;15.90;89.80;;;;;;5019055;28;20251;-74
2024/02/21 10:14:37;;;;;;;1.67;1.58;;;15.90;87.20;;;;;;5016861;28;20753;-78
2024/02/21 10:17:09;;;;;;;1.52;1.45;;;15.80;88.10;;;;;;5020493;28;20247;-75
2024/02/21 10:19:36;;;;;;;1.50;1.30;;;15.90;89.20;;;;;;5014700;28;20219;-76
2024/02/21 10:22:04;;;;;;;3.20;1.35;;;15.80;87.30;;;;;;5011934;28;20220;-75
2024/02/21 10:24:32;;;;;;;1.60;1.50;;;15.40;87.10;;;;;;5023615;28;20306;-75
2024/02/21 10:27:10;;;;;;;1.52;1.42;;;15.20;88.00;;;;;;5036487;28;20219;-75
2024/02/21 10:29:37;;;;;;;2.10;1.63;;;15.40;88.70;;;;;;5036670;28;20219;-74
2024/02/21 10:32:06;;;;;;;1.50;1.40;;;15.30;87.90;;;;;;5037871;28;20286;-75
2024/02/21 10:34:33;;;;;;;4.30;1.45;;;15.20;88.00;;;;;;5033431;28;20223;-74
2024/02/21 10:37:03;;;;;;;1.70;1.40;;;15.20;88.20;;;;;;5039064;28;20254;-71
2024/02/21 10:39:30;;;;;;;1.48;1.38;;;15.20;88.60;;;;;;5032981;28;20222;-71
2024/02/21 10:42:01;;;;;;;1.52;1.40;;;15.40;87.40;;;;;;5042701;28;20745;-76
2024/02/21 10:44:30;;;;;;;1.35;1.30;;;15.60;88.30;;;;;;5039151;28;20215;-72
2024/02/21 10:46:57;;;;;;;1.63;1.40;;;15.70;86.30;;;;;;5039405;28;20917;-78
2024/02/21 10:49:26;;;;;;;1.65;1.40;;;16.00;85.90;;;;;;5039784;28;20713;-73
2024/02/21 10:52:01;;;;;;;1.50;1.40;;;16.10;86.60;;;;;;5036128;28;20696;-75
2024/02/21 10:54:46;;;;;;;2.33;1.58;;;16.00;86.90;;;;;;5033816;28;20296;-74
2024/02/21 10:57:14;;;;;;;2.10;1.52;;;16.10;86.50;;;;;;5040113;28;20306;-76
2024/02/21 10:59:45;;;;;;;4.10;1.63;;;16.20;85.80;;;;;;5040098;28;20326;-75
2024/02/21 11:02:12;;;;;;;1.45;1.35;;;16.30;86.10;;;;;;5019991;28;20242;-76
2024/02/21 11:04:40;;;;;;;2.67;1.38;;;16.30;85.90;;;;;;5013306;28;20211;-77
2024/02/21 11:07:08;;;;;;;1.50;1.40;;;16.00;85.70;;;;;;5013734;28;20281;-75
2024/02/21 11:09:35;;;;;;;1.50;1.40;;;15.90;86.20;;;;;;5016432;28;20297;-73
2024/02/21 11:12:04;;;;;;;1.42;1.33;;;16.00;86.50;;;;;;5012670;28;20235;-71
2024/02/21 11:14:35;;;;;;;2.17;1.33;;;16.20;87.70;;;;;;5013248;28;20223;-72
2024/02/21 11:17:04;;;;;;;2.90;1.52;;;16.20;86.70;;;;;;5018842;28;20215;-72
2024/02/21 11:19:32;;;;;;;3.63;1.55;;;16.50;91.90;;;;;;5019889;28;20220;-72
2024/02/21 11:22:01;;;;;;;1.60;1.10;;;16.60;87.80;;;;;;5014528;28;20290;-71
2024/02/21 11:24:29;;;;;;;1.48;1.38;;;16.40;86.70;;;;;;5017502;28;20235;-72
2024/02/21 11:26:56;;;;;;;1.52;1.35;;;16.60;90.20;;;;;;5019529;28;20238;-73
2024/02/21 11:29:26;;;;;;;2.30;1.25;;;17.00;90.10;;;;;;5011471;28;20255;-70
2024/02/21 11:31:54;;;;;;;2.00;1.17;;;16.90;87.50;;;;;;4996564;28;20243;-71
2024/02/21 11:34:22;;;;;;;1.50;1.30;;;17.00;90.40;;;;;;5021076;28;20255;-71
2024/02/21 11:36:50;;;;;;;1.85;1.23;;;17.00;90.10;;;;;;5018682;28;20308;-71
2024/02/21 11:39:22;;;;;;;1.20;1.10;;;17.00;85.00;;;;;;5021125;28;20956;-71
2024/02/21 11:42:00;;;;;;;1.85;1.25;;;16.40;88.20;;;;;;5035038;28;20278;-74
2024/02/21 11:44:27;;;;;;;1.17;1.10;;;16.60;90.20;;;;;;5033261;28;20631;-74
2024/02/21 11:46:53;;;;;;;1.52;1.42;;;16.50;90.90;;;;;;5021043;28;20305;-74
2024/02/21 11:49:22;;;;;;;1.05;1.05;;;16.60;88.60;;;;;;5017974;28;20340;-75
2024/02/21 11:51:49;;;;;;;1.30;1.20;;;16.40;86.70;;;;;;5014941;28;20326;-73
2024/02/21 11:54:17;;;;;;;1.15;1.15;;;16.30;86.00;;;;;;5014613;28;20227;-74
2024/02/21 11:56:44;;;;;;;1.00;1.00;;;16.10;85.40;;;;;;5014918;28;20650;-74
2024/02/21 11:59:10;;;;;;;1.20;1.20;;;15.90;84.90;;;;;;5014602;28;20244;-74
2024/02/21 12:01:37;;;;;;;1.15;1.15;;;16.00;85.00;;;;;;5014445;28;20248;-75
2024/02/21 12:04:04;;;;;;;1.40;1.30;;;16.00;83.20;;;;;;5015004;28;20254;-74
2024/02/21 12:06:34;;;;;;;1.20;1.20;;;16.00;82.00;;;;;;5020718;28;20310;-74
2024/02/21 12:09:01;;;;;;;1.45;1.35;;;16.00;85.20;;;;;;5018358;28;20280;-74
2024/02/21 12:11:28;;;;;;;1.30;1.10;;;16.10;84.50;;;;;;5017027;28;20649;-74
2024/02/21 12:14:03;;;;;;;10.55;1.20;;;16.10;84.40;;;;;;5017898;28;20697;-74
2024/02/21 12:16:30;;;;;;;1.25;1.25;;;16.30;81.80;;;;;;4989478;28;20285;-74
2024/02/21 12:18:58;;;;;;;2.70;1.20;;;16.10;81.90;;;;;;5017601;28;20293;-74
2024/02/21 12:21:28;;;;;;;1.13;1.10;;;16.00;83.00;;;;;;5021529;28;20374;-73
2024/02/21 12:23:57;;;;;;;1.13;1.13;;;16.20;83.70;;;;;;5017888;28;20204;-73
2024/02/21 12:26:24;;;;;;;0.95;0.95;;;16.50;83.70;;;;;;5018689;28;20219;-74
2024/02/21 12:28:51;;;;;;;1.52;1.10;;;16.80;83.60;;;;;;5013842;28;20277;-74
2024/02/21 12:31:18;;;;;;;2.10;1.52;;;16.70;83.50;;;;;;4994928;28;20252;-74
2024/02/21 12:33:45;;;;;;;1.15;1.05;;;16.50;83.70;;;;;;5013407;28;20585;-74
2024/02/21 12:36:12;;;;;;;1.15;1.05;;;16.40;83.20;;;;;;5015201;28;20852;-74
2024/02/21 12:38:39;;;;;;;1.13;1.13;;;16.60;82.20;;;;;;5017522;28;20231;-74
2024/02/21 12:41:08;;;;;;;1.55;1.17;;;16.60;82.70;;;;;;5016813;28;20320;-74
2024/02/21 12:43:35;;;;;;;0.90;0.90;;;16.60;81.80;;;;;;5014275;28;20218;-73
2024/02/21 12:46:02;;;;;;;1.27;1.17;;;16.60;83.00;;;;;;5017081;28;20266;-74
2024/02/21 12:48:29;;;;;;;1.80;1.00;;;16.50;80.90;;;;;;5015679;28;20285;-74
2024/02/21 12:50:56;;;;;;;1.40;1.02;;;16.30;81.80;;;;;;5018422;28;20225;-74
2024/02/21 12:53:24;;;;;;;1.40;1.30;;;16.40;81.20;;;;;;5015830;28;20241;-74
2024/02/21 12:55:51;;;;;;;1.10;1.00;;;16.40;80.40;;;;;;5014976;28;20273;-74